createdAt,value
2022-08-01T00:00:05.897Z,101767.38
2022-08-01T00:02:32.757Z,101758.69
2022-08-01T00:05:01.078Z,101763.94
2022-08-01T00:07:27.466Z,101767.50
2022-08-01T00:09:53.824Z,101767.38
2022-08-01T00:12:20.191Z,101767.50
2022-08-01T00:14:46.562Z,101768.34
2022-08-01T00:17:12.958Z,101764.88
2022-08-01T00:19:39.483Z,101765.72
2022-08-01T00:22:06.257Z,101771.94
2022-08-01T00:24:32.876Z,101763.19
2022-08-01T00:26:59.232Z,101766.69
2022-08-01T00:30:04.706Z,101766.69
2022-08-01T00:32:12.068Z,101777.16
2022-08-01T00:34:38.416Z,101769.31
2022-08-01T00:37:04.812Z,101778.94
2022-08-01T00:39:31.168Z,101769.50
2022-08-01T00:42:01.736Z,101767.63
2022-08-01T00:44:28.405Z,101764.19
2022-08-01T00:46:54.816Z,101776.31
2022-08-01T00:49:21.335Z,101767.75
2022-08-01T00:51:47.963Z,101766.81
2022-08-01T00:54:16.762Z,101766.81
2022-08-01T00:56:44.337Z,101766.88
2022-08-01T00:59:12.396Z,101776.44
2022-08-01T01:01:41.032Z,101775.63
2022-08-01T01:04:14.166Z,101784.31
2022-08-01T01:06:46.589Z,101783.47
2022-08-01T01:09:31.335Z,101779.19
2022-08-01T01:12:13.082Z,101773.00
2022-08-01T01:14:51.850Z,101772.13
2022-08-01T01:17:49.519Z,101779.19
2022-08-01T01:20:13.435Z,101774.88
2022-08-01T01:22:54.786Z,101767.84
2022-08-01T01:25:37.664Z,101768.81
2022-08-01T01:28:21.659Z,101773.09
2022-08-01T01:30:52.715Z,101772.25
2022-08-01T01:33:22.289Z,101767.00
2022-08-01T01:35:56.916Z,101773.22
2022-08-01T01:38:26.479Z,101765.34
2022-08-01T01:40:54.502Z,101763.56
2022-08-01T01:43:22.475Z,101767.84
2022-08-01T01:45:56.900Z,101767.09
2022-08-01T01:48:24.368Z,101766.25
2022-08-01T01:50:53.247Z,101774.13
2022-08-01T01:53:22.102Z,101768.06
2022-08-01T01:55:52.789Z,101764.47
2022-08-01T01:58:21.338Z,101772.44
2022-08-01T02:00:50.585Z,101776.75
2022-08-01T02:03:19.328Z,101770.81
2022-08-01T02:05:47.603Z,101778.56
2022-08-01T02:08:17.281Z,101769.00
2022-08-01T02:11:06.175Z,101776.88
2022-08-01T02:13:38.364Z,101775.94
2022-08-01T02:16:06.350Z,101770.81
2022-08-01T02:18:33.707Z,101769.00
2022-08-01T02:21:03.371Z,101774.25
2022-08-01T02:23:33.856Z,101778.66
2022-08-01T02:26:09.125Z,101767.31
2022-08-01T02:28:46.450Z,101776.03
2022-08-01T02:31:17.788Z,101776.88
2022-08-01T02:33:49.401Z,101777.81
2022-08-01T02:36:32.564Z,101780.44
2022-08-01T02:39:03.396Z,101780.44
2022-08-01T02:41:32.496Z,101781.41
2022-08-01T02:44:02.736Z,101777.09
2022-08-01T02:46:36.111Z,101797.13
2022-08-01T02:49:04.966Z,101784.97
2022-08-01T02:51:32.743Z,101779.72
2022-08-01T02:54:02.413Z,101787.59
2022-08-01T02:56:35.700Z,101776.38
2022-08-01T02:59:10.176Z,101778.78
2022-08-01T03:01:38.057Z,101785.78
2022-08-01T03:04:08.410Z,101780.66
2022-08-01T03:06:36.924Z,101774.47
2022-08-01T03:09:04.923Z,101775.44
2022-08-01T03:11:33.328Z,101769.34
2022-08-01T03:14:02.779Z,101766.72
2022-08-01T03:16:32.372Z,101768.50
2022-08-01T03:19:01.674Z,101770.19
2022-08-01T03:21:29.547Z,101771.13
2022-08-01T03:24:00.516Z,101773.75
2022-08-01T03:26:32.911Z,101773.75
2022-08-01T03:29:07.315Z,101784.22
2022-08-01T03:31:39.195Z,101777.34
2022-08-01T03:34:06.952Z,101786.84
2022-08-01T03:36:35.507Z,101782.59
2022-08-01T03:39:04.608Z,101775.53
2022-08-01T03:41:38.777Z,101774.72
2022-08-01T03:44:10.581Z,101777.34
2022-08-01T03:46:55.299Z,101786.97
2022-08-01T03:49:26.723Z,101786.03
2022-08-01T03:51:53.714Z,101782.59
2022-08-01T03:54:26.118Z,101789.59
2022-08-01T03:56:52.952Z,101794.84
2022-08-01T03:59:21.144Z,101794.84
2022-08-01T04:01:48.421Z,101792.34
2022-08-01T04:04:15.078Z,101791.38
2022-08-01T04:06:44.756Z,101787.94
2022-08-01T04:09:13.777Z,101783.53
2022-08-01T04:11:41.734Z,101786.16
2022-08-01T04:14:09.157Z,101781.03
2022-08-01T04:16:35.852Z,101791.38
2022-08-01T04:19:02.481Z,101792.34
2022-08-01T04:21:31.976Z,101793.31
2022-08-01T04:24:02.129Z,101806.41
2022-08-01T04:26:30.916Z,101808.06
2022-08-01T04:28:57.617Z,101812.47
2022-08-01T04:31:26.944Z,101812.47
2022-08-01T04:33:56.960Z,101808.19
2022-08-01T04:36:24.596Z,101810.81
2022-08-01T04:38:56.664Z,101815.22
2022-08-01T04:41:24.254Z,101816.03
2022-08-01T04:43:52.212Z,101822.25
2022-08-01T04:46:19.906Z,101821.28
2022-08-01T04:48:46.774Z,101814.41
2022-08-01T04:51:18.218Z,101824.78
2022-08-01T04:53:46.827Z,101827.38
2022-08-01T04:56:14.202Z,101832.63
2022-08-01T04:58:42.070Z,101831.06
2022-08-01T05:01:09.352Z,101833.69
2022-08-01T05:03:38.839Z,101838.81
2022-08-01T05:06:06.161Z,101850.13
2022-08-01T05:08:32.556Z,101851.09
2022-08-01T05:10:58.972Z,101845.75
2022-08-01T05:13:25.320Z,101847.63
2022-08-01T05:15:53.425Z,101849.31
2022-08-01T05:18:27.899Z,101854.53
2022-08-01T05:20:55.384Z,101843.22
2022-08-01T05:23:31.031Z,101850.13
2022-08-01T05:26:08.812Z,101845.75
2022-08-01T05:28:35.851Z,101846.56
2022-08-01T05:31:02.272Z,101853.59
2022-08-01T05:33:28.608Z,101847.41
2022-08-01T05:35:57.799Z,101852.63
2022-08-01T05:38:24.143Z,101863.13
2022-08-01T05:40:50.614Z,101861.34
2022-08-01T05:43:17.211Z,101867.44
2022-08-01T05:45:43.603Z,101863.13
2022-08-01T05:48:09.965Z,101866.59
2022-08-01T05:50:36.341Z,101855.25
2022-08-01T05:53:02.745Z,101865.75
2022-08-01T05:55:29.548Z,101860.50
2022-08-01T05:57:56.524Z,101863.97
2022-08-01T06:00:22.940Z,101868.38
2022-08-01T06:02:49.314Z,101864.09
2022-08-01T06:05:16.814Z,101865.75
2022-08-01T06:07:43.214Z,101867.53
2022-08-01T06:10:09.885Z,101877.09
2022-08-01T06:12:37.130Z,101877.09
2022-08-01T06:15:05.516Z,101872.66
2022-08-01T06:17:31.899Z,101878.84
2022-08-01T06:19:58.508Z,101875.28
2022-08-01T06:22:24.853Z,101875.28
2022-08-01T06:24:52.713Z,101878.75
2022-08-01T06:27:21.542Z,101871.84
2022-08-01T06:29:51.019Z,101874.59
2022-08-01T06:32:27.180Z,101874.47
2022-08-01T06:34:55.530Z,101873.59
2022-08-01T06:37:22.428Z,101880.53
2022-08-01T06:39:50.291Z,101877.91
2022-08-01T06:42:16.824Z,101887.47
2022-08-01T06:44:43.203Z,101884.84
2022-08-01T06:47:09.703Z,101892.72
2022-08-01T06:49:36.139Z,101895.31
2022-08-01T06:52:04.296Z,101901.41
2022-08-01T06:54:30.910Z,101896.97
2022-08-01T06:56:57.276Z,101894.34
2022-08-01T06:59:23.633Z,101898.66
2022-08-01T07:01:50.028Z,101902.22
2022-08-01T07:04:16.468Z,101901.41
2022-08-01T07:06:42.847Z,101900.56
2022-08-01T07:09:13.729Z,101904.03
2022-08-01T07:11:40.925Z,101900.56
2022-08-01T07:14:07.443Z,101911.78
2022-08-01T07:16:33.847Z,101902.09
2022-08-01T07:19:00.185Z,101900.47
2022-08-01T07:21:39.915Z,101910.72
2022-08-01T07:24:13.861Z,101909.78
2022-08-01T07:26:52.292Z,101915.84
2022-08-01T07:29:21.280Z,101914.16
2022-08-01T07:31:47.651Z,101917.66
2022-08-01T07:34:14.023Z,101922.03
2022-08-01T07:36:40.524Z,101922.88
2022-08-01T07:39:06.873Z,101916.78
2022-08-01T07:41:53.028Z,101921.31
2022-08-01T07:44:19.653Z,101932.97
2022-08-01T07:46:46.020Z,101931.28
2022-08-01T07:49:12.489Z,101935.59
2022-08-01T07:51:39.371Z,101935.59
2022-08-01T07:54:05.763Z,101941.66
2022-08-01T07:56:32.188Z,101949.53
2022-08-01T07:58:58.602Z,101946.91
2022-08-01T08:01:25.110Z,101938.34
2022-08-01T08:03:51.489Z,101944.41
2022-08-01T08:06:17.879Z,101952.28
2022-08-01T08:08:44.356Z,101961.81
2022-08-01T08:11:10.937Z,101950.50
2022-08-01T08:13:37.336Z,101956.69
2022-08-01T08:16:03.903Z,101960.13
2022-08-01T08:18:30.269Z,101949.66
2022-08-01T08:20:56.651Z,101955.84
2022-08-01T08:23:43.825Z,101966.34
2022-08-01T08:26:13.499Z,101972.53
2022-08-01T08:28:40.440Z,101967.28
2022-08-01T08:31:07.959Z,101977.78
2022-08-01T08:33:52.169Z,101975.97
2022-08-01T08:36:18.545Z,101975.16
2022-08-01T08:38:45.156Z,101972.63
2022-08-01T08:41:14.379Z,101976.94
2022-08-01T08:43:42.373Z,101980.41
2022-08-01T08:46:09.701Z,101973.47
2022-08-01T08:48:38.215Z,101983.97
2022-08-01T08:51:04.735Z,101985.63
2022-08-01T08:53:34.750Z,101986.56
2022-08-01T08:56:02.676Z,101981.34
2022-08-01T08:58:30.637Z,101988.25
2022-08-01T09:00:58.817Z,101983.97
2022-08-01T09:03:25.227Z,101985.53
2022-08-01T09:05:51.676Z,101987.31
2022-08-01T09:08:18.076Z,101986.25
2022-08-01T09:10:44.440Z,101995.78
2022-08-01T09:13:13.840Z,102001.88
2022-08-01T09:15:40.668Z,102000.00
2022-08-01T09:18:07.841Z,102000.81
2022-08-01T09:20:37.260Z,102005.13
2022-08-01T09:23:04.642Z,102009.31
2022-08-01T09:25:36.755Z,102010.25
2022-08-01T09:28:14.484Z,102004.91
2022-08-01T09:30:42.463Z,102010.06
2022-08-01T09:33:18.124Z,102011.75
2022-08-01T09:35:58.452Z,102015.09
2022-08-01T09:38:29.479Z,102019.28
2022-08-01T09:40:58.960Z,102018.34
2022-08-01T09:43:28.301Z,102027.03
2022-08-01T09:45:58.247Z,102014.84
2022-08-01T09:48:28.393Z,102027.03
2022-08-01T09:51:05.004Z,102027.84
2022-08-01T09:53:51.693Z,102037.53
2022-08-01T09:56:20.646Z,102032.38
2022-08-01T09:59:00.072Z,102037.53
2022-08-01T10:01:36.947Z,102033.00
2022-08-01T10:04:10.416Z,102034.69
2022-08-01T10:06:37.546Z,102035.50
2022-08-01T10:09:04.718Z,102036.38
2022-08-01T10:11:36.152Z,102036.47
2022-08-01T10:14:04.410Z,102033.84
2022-08-01T10:16:31.507Z,102036.59
2022-08-01T10:18:57.895Z,102038.34
2022-08-01T10:21:53.160Z,102035.72
2022-08-01T10:24:14.865Z,102032.16
2022-08-01T10:26:49.077Z,102040.88
2022-08-01T10:29:44.897Z,102039.09
2022-08-01T10:32:07.354Z,102039.09
2022-08-01T10:34:35.671Z,102036.47
2022-08-01T10:37:02.719Z,102030.38
2022-08-01T10:39:33.369Z,102037.31
2022-08-01T10:42:00.216Z,102035.50
2022-08-01T10:44:28.555Z,102036.47
2022-08-01T10:47:10.266Z,102036.38
2022-08-01T10:49:44.176Z,102034.69
2022-08-01T10:52:20.583Z,102032.88
2022-08-01T10:54:52.570Z,102031.13
2022-08-01T10:57:19.629Z,102031.94
2022-08-01T11:00:01.294Z,102025.88
2022-08-01T11:02:34.377Z,102026.69
2022-08-01T11:05:19.683Z,102037.06
2022-08-01T11:07:53.732Z,102039.69
2022-08-01T11:10:25.655Z,102031.84
2022-08-01T11:12:53.640Z,102041.50
2022-08-01T11:15:29.114Z,102029.31
2022-08-01T11:18:00.515Z,102028.28
2022-08-01T11:20:31.656Z,102036.13
2022-08-01T11:23:07.479Z,102036.97
2022-08-01T11:26:05.629Z,102044.00
2022-08-01T11:28:30.157Z,102048.31
2022-08-01T11:31:14.117Z,102046.53
2022-08-01T11:33:40.801Z,102057.00
2022-08-01T11:36:13.083Z,102060.56
2022-08-01T11:38:46.318Z,102061.44
2022-08-01T11:41:38.733Z,102061.44
2022-08-01T11:44:06.457Z,102054.50
2022-08-01T11:46:46.208Z,102049.25
2022-08-01T11:49:38.750Z,102052.69
2022-08-01T11:52:08.848Z,102052.59
2022-08-01T11:54:41.283Z,102054.28
2022-08-01T11:57:12.609Z,102054.16
2022-08-01T11:59:41.380Z,102045.47
2022-08-01T12:02:30.579Z,102058.47
2022-08-01T12:04:58.779Z,102061.81
2022-08-01T12:07:28.944Z,102057.44
2022-08-01T12:10:00.102Z,102065.28
2022-08-01T12:12:26.572Z,102062.66
2022-08-01T12:14:58.731Z,102073.16
2022-08-01T12:17:38.511Z,102067.91
2022-08-01T12:20:10.674Z,102066.94
2022-08-01T12:22:37.439Z,102060.88
2022-08-01T12:25:14.853Z,102072.19
2022-08-01T12:27:44.159Z,102065.19
2022-08-01T12:30:12.718Z,102067.81
2022-08-01T12:32:41.165Z,102066.00
2022-08-01T12:35:11.581Z,102064.09
2022-08-01T12:37:46.157Z,102068.41
2022-08-01T12:40:16.210Z,102068.41
2022-08-01T12:42:43.735Z,102065.06
2022-08-01T12:45:12.376Z,102062.56
2022-08-01T12:47:39.781Z,102065.19
2022-08-01T12:50:15.073Z,102066.13
2022-08-01T12:52:41.844Z,102057.44
2022-08-01T12:55:20.904Z,102058.34
2022-08-01T12:58:03.731Z,102066.22
2022-08-01T13:00:30.441Z,102067.06
2022-08-01T13:03:06.944Z,102062.78
2022-08-01T13:05:46.480Z,102059.31
2022-08-01T13:08:24.408Z,102054.81
2022-08-01T13:10:51.456Z,102058.13
2022-08-01T13:13:28.595Z,102064.97
2022-08-01T13:16:05.449Z,102068.63
2022-08-01T13:18:33.956Z,102067.69
2022-08-01T13:21:18.475Z,102066.84
2022-08-01T13:24:13.350Z,102059.94
2022-08-01T13:27:02.291Z,102063.38
2022-08-01T13:29:39.494Z,102062.44
2022-08-01T13:32:28.659Z,102064.00
2022-08-01T13:35:05.930Z,102057.81
2022-08-01T13:37:32.630Z,102055.06
2022-08-01T13:39:59.176Z,102055.81
2022-08-01T13:42:25.561Z,102054.00
2022-08-01T13:44:51.980Z,102048.53
2022-08-01T13:47:18.676Z,102049.47
2022-08-01T13:49:54.817Z,102057.47
2022-08-01T13:52:21.337Z,102057.47
2022-08-01T13:54:47.681Z,102048.88
2022-08-01T13:57:15.253Z,102048.06
2022-08-01T13:59:41.634Z,102050.69
2022-08-01T14:02:08.539Z,102042.69
2022-08-01T14:04:35.146Z,102042.69
2022-08-01T14:07:04.293Z,102043.50
2022-08-01T14:09:36.136Z,102048.66
2022-08-01T14:12:11.686Z,102038.97
2022-08-01T14:14:39.374Z,102035.53
2022-08-01T14:17:05.782Z,102043.41
2022-08-01T14:19:38.198Z,102040.66
2022-08-01T14:22:06.264Z,102045.09
2022-08-01T14:24:32.894Z,102039.84
2022-08-01T14:26:59.308Z,102037.22
2022-08-01T14:30:02.041Z,102038.03
2022-08-01T14:32:16.310Z,102038.88
2022-08-01T14:34:42.698Z,102037.09
2022-08-01T14:37:09.459Z,102036.25
2022-08-01T14:39:36.477Z,102044.97
2022-08-01T14:42:02.986Z,102031.09
2022-08-01T14:44:32.910Z,102038.16
2022-08-01T14:46:59.603Z,102043.50
2022-08-01T14:49:28.118Z,102043.50
2022-08-01T14:51:54.596Z,102037.56
2022-08-01T14:54:29.179Z,102041.00
2022-08-01T14:56:56.285Z,102036.81
2022-08-01T14:59:22.659Z,102039.44
2022-08-01T15:01:49.080Z,102040.25
2022-08-01T15:04:15.567Z,102035.00
2022-08-01T15:06:45.437Z,102033.38
2022-08-01T15:09:11.806Z,102041.13
2022-08-01T15:11:38.381Z,102032.31
2022-08-01T15:14:23.495Z,102038.38
2022-08-01T15:16:49.895Z,102030.50
2022-08-01T15:19:17.724Z,102037.56
2022-08-01T15:21:44.188Z,102039.44
2022-08-01T15:24:10.686Z,102036.81
2022-08-01T15:26:37.103Z,102049.09
2022-08-01T15:29:03.881Z,102049.09
2022-08-01T15:31:30.253Z,102049.00
2022-08-01T15:33:56.628Z,102056.75
2022-08-01T15:36:25.638Z,102062.72
2022-08-01T15:38:52.399Z,102055.69
2022-08-01T15:41:18.796Z,102055.69
2022-08-01T15:43:45.158Z,102051.16
2022-08-01T15:46:11.843Z,102055.47
2022-08-01T15:48:40.109Z,102058.09
2022-08-01T15:51:08.869Z,102051.03
2022-08-01T15:53:35.285Z,102050.22
2022-08-01T15:56:01.660Z,102054.50
2022-08-01T15:58:28.010Z,102064.91
2022-08-01T16:00:54.346Z,102055.13
2022-08-01T16:03:21.820Z,102065.63
2022-08-01T16:05:50.409Z,102059.44
2022-08-01T16:08:16.880Z,102053.00
2022-08-01T16:10:43.396Z,102057.94
2022-08-01T16:13:10.090Z,102052.44
2022-08-01T16:15:37.870Z,102050.53
2022-08-01T16:18:09.206Z,102050.53
2022-08-01T16:20:35.816Z,102059.34
2022-08-01T16:23:02.526Z,102054.22
2022-08-01T16:25:29.033Z,102048.25
2022-08-01T16:27:55.456Z,102050.06
2022-08-01T16:30:22.093Z,102052.69
2022-08-01T16:32:51.143Z,102053.50
2022-08-01T16:35:20.542Z,102043.84
2022-08-01T16:37:46.943Z,102045.53
2022-08-01T16:40:13.382Z,102049.94
2022-08-01T16:42:39.747Z,102044.56
2022-08-01T16:45:08.807Z,102045.41
2022-08-01T16:47:40.490Z,102040.16
2022-08-01T16:50:09.363Z,102039.22
2022-08-01T16:52:41.917Z,102039.22
2022-08-01T16:55:10.161Z,102030.41
2022-08-01T16:57:37.114Z,102033.84
2022-08-01T17:00:12.358Z,102035.66
2022-08-01T17:02:47.955Z,102035.66
2022-08-01T17:05:14.357Z,102037.31
2022-08-01T17:07:41.385Z,102043.41
2022-08-01T17:10:08.836Z,102042.56
2022-08-01T17:12:39.468Z,102053.06
2022-08-01T17:15:07.374Z,102038.97
2022-08-01T17:17:33.779Z,102044.22
2022-08-01T17:20:00.563Z,102041.72
2022-08-01T17:22:28.946Z,102038.97
2022-08-01T17:24:55.376Z,102032.06
2022-08-01T17:27:21.819Z,102036.34
2022-08-01T17:29:48.212Z,102042.56
2022-08-01T17:32:14.731Z,102041.59
2022-08-01T17:34:42.558Z,102044.13
2022-08-01T17:37:09.739Z,102049.47
2022-08-01T17:39:39.444Z,102052.00
2022-08-01T17:42:07.965Z,102052.81
2022-08-01T17:44:36.658Z,102039.81
2022-08-01T17:47:04.611Z,102041.59
2022-08-01T17:49:53.191Z,102049.38
2022-08-01T17:52:17.549Z,102042.56
2022-08-01T17:54:46.207Z,102043.59
2022-08-01T17:57:12.687Z,102049.09
2022-08-01T17:59:39.162Z,102050.16
2022-08-01T18:02:06.904Z,102047.75
2022-08-01T18:04:33.820Z,102047.03
2022-08-01T18:07:00.757Z,102047.03
2022-08-01T18:09:32.383Z,102048.94
2022-08-01T18:12:02.027Z,102055.13
2022-08-01T18:14:40.874Z,102046.44
2022-08-01T18:17:15.195Z,102057.03
2022-08-01T18:19:41.777Z,102057.97
2022-08-01T18:22:31.193Z,102053.66
2022-08-01T18:24:59.583Z,102055.47
2022-08-01T18:28:22.349Z,102056.41
2022-08-01T18:30:18.527Z,102050.34
2022-08-01T18:32:45.033Z,102054.84
2022-08-01T18:35:14.164Z,102065.34
2022-08-01T18:37:47.126Z,102058.44
2022-08-01T18:40:23.153Z,102069.97
2022-08-01T18:42:49.649Z,102063.38
2022-08-01T18:45:16.127Z,102060.97
2022-08-01T18:47:45.112Z,102054.81
2022-08-01T18:50:11.586Z,102053.81
2022-08-01T18:52:37.964Z,102050.72
2022-08-01T18:55:04.833Z,102049.97
2022-08-01T18:57:31.246Z,102056.28
2022-08-01T18:59:58.648Z,102059.97
2022-08-01T19:02:25.057Z,102065.31
2022-08-01T19:04:51.551Z,102055.88
2022-08-01T19:07:33.647Z,102060.41
2022-08-01T19:10:06.902Z,102060.53
2022-08-01T19:12:33.292Z,102064.19
2022-08-01T19:15:04.905Z,102065.22
2022-08-01T19:17:31.870Z,102069.63
2022-08-01T19:19:58.694Z,102063.75
2022-08-01T19:22:25.044Z,102059.56
2022-08-01T19:24:51.476Z,102071.84
2022-08-01T19:27:24.675Z,102074.13
2022-08-01T19:29:56.282Z,102085.06
2022-08-01T19:32:29.116Z,102087.47
2022-08-01T19:35:01.488Z,102084.72
2022-08-01T19:37:30.345Z,102095.94
2022-08-01T19:39:57.694Z,102090.59
2022-08-01T19:42:25.429Z,102104.56
2022-08-01T19:44:52.415Z,102105.50
2022-08-01T19:47:19.229Z,102101.94
2022-08-01T19:49:45.883Z,102103.69
2022-08-01T19:52:17.200Z,102103.63
2022-08-01T19:54:45.563Z,102107.06
2022-08-01T19:57:14.997Z,102107.06
2022-08-01T19:59:45.961Z,102111.50
2022-08-01T20:02:18.969Z,102101.94
2022-08-01T20:04:46.293Z,102105.28
2022-08-01T20:07:15.971Z,102101.81
2022-08-01T20:09:46.647Z,102102.53
2022-08-01T20:12:13.980Z,102103.63
2022-08-01T20:14:42.748Z,102090.09
2022-08-01T20:17:09.292Z,102099.66
2022-08-01T20:19:35.755Z,102097.75
2022-08-01T20:22:07.648Z,102096.69
2022-08-01T20:24:44.676Z,102101.94
2022-08-01T20:27:15.613Z,102101.00
2022-08-01T20:29:44.942Z,102090.50
2022-08-01T20:32:12.041Z,102087.03
2022-08-01T20:34:39.289Z,102089.75
2022-08-01T20:37:13.140Z,102093.31
2022-08-01T20:39:43.261Z,102094.19
2022-08-01T20:42:11.174Z,102107.41
2022-08-01T20:44:38.632Z,102098.69
2022-08-01T20:47:07.907Z,102099.66
2022-08-01T20:49:37.392Z,102090.91
2022-08-01T20:52:12.197Z,102102.28
2022-08-01T20:54:42.946Z,102096.28
2022-08-01T20:57:20.224Z,102098.91
2022-08-01T20:59:56.514Z,102097.13
2022-08-01T21:02:29.865Z,102092.00
2022-08-01T21:05:04.160Z,102096.28
2022-08-01T21:07:39.286Z,102095.56
2022-08-01T21:10:07.758Z,102094.69
2022-08-01T21:12:44.595Z,102090.41
2022-08-01T21:15:21.905Z,102095.66
2022-08-01T21:18:04.825Z,102098.28
2022-08-01T21:20:33.843Z,102096.59
2022-08-01T21:23:11.039Z,102100.13
2022-08-01T21:25:41.550Z,102100.13
2022-08-01T21:28:08.071Z,102093.22
2022-08-01T21:30:36.320Z,102095.00
2022-08-01T21:33:04.907Z,102098.47
2022-08-01T21:35:34.643Z,102089.75
2022-08-01T21:38:02.254Z,102098.47
2022-08-01T21:40:31.996Z,102095.84
2022-08-01T21:43:03.487Z,102106.25
2022-08-01T21:45:30.303Z,102093.22
2022-08-01T21:47:58.143Z,102086.31
2022-08-01T21:50:25.030Z,102076.75
2022-08-01T21:53:00.632Z,102082.00
2022-08-01T21:55:51.900Z,102082.97
2022-08-01T21:58:57.696Z,102085.59
2022-08-01T22:01:54.636Z,102083.91
2022-08-01T22:04:41.768Z,102084.00
2022-08-01T22:07:10.774Z,102079.59
2022-08-01T22:09:39.641Z,102074.44
2022-08-01T22:12:07.780Z,102081.38
2022-08-01T22:14:41.854Z,102074.56
2022-08-01T22:17:13.682Z,102078.88
2022-08-01T22:19:45.495Z,102084.22
2022-08-01T22:22:44.638Z,102078.13
2022-08-01T22:25:01.366Z,102072.88
2022-08-01T22:28:06.335Z,102075.50
2022-08-01T22:30:17.556Z,102068.59
2022-08-01T22:33:07.283Z,102071.22
2022-08-01T22:35:34.484Z,102074.78
2022-08-01T22:38:01.577Z,102068.72
2022-08-01T22:40:32.668Z,102072.16
2022-08-01T22:43:02.289Z,102068.78
2022-08-01T22:45:31.816Z,102074.03
2022-08-01T22:48:15.657Z,102067.13
2022-08-01T22:50:49.455Z,102078.44
2022-08-01T22:53:32.354Z,102072.38
2022-08-01T22:56:01.945Z,102066.28
2022-08-01T22:58:30.990Z,102055.06
2022-08-01T23:01:01.184Z,102062.00
2022-08-01T23:03:34.788Z,102057.69
2022-08-01T23:06:13.524Z,102067.34
2022-08-01T23:08:41.160Z,102062.09
2022-08-01T23:11:07.904Z,102059.50
2022-08-01T23:13:34.507Z,102054.25
2022-08-01T23:16:02.294Z,102049.94
2022-08-01T23:18:28.981Z,102047.44
2022-08-01T23:21:00.606Z,102043.00
2022-08-01T23:23:31.857Z,102054.47
2022-08-01T23:25:59.768Z,102051.84
2022-08-01T23:28:28.251Z,102046.69
2022-08-01T23:30:55.263Z,102050.97
2022-08-01T23:33:21.998Z,102044.06
2022-08-01T23:35:48.397Z,102047.66
2022-08-01T23:38:15.997Z,102047.66
2022-08-01T23:40:42.936Z,102055.50
2022-08-01T23:43:16.601Z,102056.44
2022-08-01T23:46:04.638Z,102054.66
2022-08-01T23:48:30.220Z,102052.03
2022-08-01T23:50:56.621Z,102053.00
2022-08-01T23:53:24.032Z,102050.38
2022-08-01T23:55:57.176Z,102053.94
2022-08-01T23:58:23.990Z,102044.28
